• Join FlightAware (Why Join?)
  • Login
  • US Flag 
09:39AM EST


 

Airport Tracker/Info


-or-


 

Live Flight TrackerFlight Track Log ✈ TAM3724 ✈ 16-Jul-2013 ✈ SBSP / CGH - SBBR / BSB

Flight Track Log - Related Links

Times and Time Zones

All times are in EDT time to prevent confusion due to time zone crossing. See the TAM3724 flight status page for this flight to view local times or setup timezone preferences in your user account.

Time Position Orientation Groundspeed Altitude Reporting Facility
EDT Latitude Longitude Course Direction KTS MPH feet Rate Location/Type
06:59PM -23.6400 -46.6470 146° Southeast 153 176 3,100  Level FlightAware
07:00PM -23.6480 -46.6350 126° Southeast 170 196 3,400 960 Climbing FlightAware
07:00PM -23.6250 -46.6050 50° Northeast 215 247 4,000 900 Climbing FlightAware
07:00PM -23.6150 -46.5950 42° Northeast 237 273 4,200 2,040 Climbing FlightAware
07:01PM -23.6080 -46.5770 67° East 253 291 5,000 3,480 Climbing FlightAware
07:01PM -23.6020 -46.5470 78° East 245 282 6,600 2,520 Climbing FlightAware
07:02PM -23.5940 -46.5040 79° East 282 325 7,400 1,620 Climbing FlightAware
07:02PM -23.5870 -46.4710 77° East 306 352 8,100 2,340 Climbing FlightAware
07:03PM -23.5750 -46.4200 76° East 314 361 9,600 2,280 Climbing FlightAware
07:03PM -23.5600 -46.3600 75° East 347 399 10,800 1,560 Climbing FlightAware
07:03PM -23.5450 -46.3400 51° Northeast 363 418 11,000 1,560 Climbing FlightAware
07:04PM -23.5220 -46.3270 27° Northeast 362 417 11,600 2,160 Climbing FlightAware
07:04PM -23.5050 -46.3250 North 356 410 12,100 2,580 Climbing FlightAware
07:04PM -23.4530 -46.3420 343° North 351 404 13,500 2,460 Climbing FlightAware
07:05PM -23.3870 -46.3780 333° Northwest 365 420 15,200 2,280 Climbing FlightAware
07:06PM -23.3310 -46.4050 336° Northwest 373 429 16,600 2,340 Climbing FlightAware
07:06PM -23.2600 -46.4350 339° North 376 433 18,300 2,040 Climbing FlightAware
07:07PM -23.1940 -46.4640 338° Northwest 390 449 19,500 1,800 Climbing FlightAware
07:08PM -23.1400 -46.4880 338° Northwest 397 457 20,500 1,500 Climbing FlightAware
07:08PM -23.0830 -46.5120 339° North 415 478 21,100 1,800 Climbing FlightAware
07:09PM -23.0030 -46.5470 338° Northwest 412 474 22,800 1,800 Climbing FlightAware
07:10PM -22.9230 -46.5740 343° North 429 494 23,800 1,320 Climbing FlightAware
07:10PM -22.8440 -46.5880 351° North 440 506 24,700 1,080 Climbing FlightAware
07:11PM -22.7960 -46.5960 351° North 443 510 25,300 1,500 Climbing FlightAware
07:11PM -22.7030 -46.6110 352° North 440 506 26,500 1,740 Climbing FlightAware
07:12PM -22.6200 -46.6250 351° North 454 522 27,300 1,260 Climbing FlightAware
07:13PM -22.5350 -46.6390 351° North 453 521 28,200 1,440 Climbing FlightAware
07:13PM -22.4610 -46.6510 351° North 452 520 29,100 1,260 Climbing FlightAware
07:14PM -22.3650 -46.6660 352° North 459 528 29,900 960 Climbing FlightAware
07:16PM -22.1880 -46.6940 352° North 470 541 31,500 1,200 Climbing FlightAware
07:17PM -22.0650 -46.7120 352° North 462 532 32,800 1,500 Climbing FlightAware
07:17PM -21.9810 -46.7250 352° North 459 528 33,700 1,200 Climbing FlightAware
07:18PM -21.8720 -46.7410 352° North 458 527 34,600 900 Climbing FlightAware
07:19PM -21.7920 -46.7530 352° North 452 520 35,000 420 Climbing FlightAware
07:19PM -21.6960 -46.7690 351° North 439 505 35,200 420 Climbing FlightAware
07:20PM -21.6350 -46.7980 336° Northwest 433 498 35,600 1,020 Climbing FlightAware
07:21PM -21.5600 -46.8350 335° Northwest 426 490 36,500 780 Climbing FlightAware
07:21PM -21.4760 -46.8760 336° Northwest 431 496 36,800 300 Climbing FlightAware
07:22PM -21.4020 -46.9120 336° Northwest 434 499 37,000 120 Climbing FlightAware
07:23PM -21.3370 -46.9440 335° Northwest 434 499 37,000  Level FlightAware
07:23PM -21.2660 -46.9790 335° Northwest 437 503 37,000  Level FlightAware
07:24PM -21.1860 -47.0180 336° Northwest 442 509 37,000  Level FlightAware
07:25PM -21.1020 -47.0590 336° Northwest 451 519 37,000  Level FlightAware
07:25PM -21.0280 -47.0950 336° Northwest 451 519 37,000  Level FlightAware
07:26PM -20.9490 -47.1340 335° Northwest 454 522 37,000  Level FlightAware
07:27PM -20.8730 -47.1710 336° Northwest 456 525 37,000  Level FlightAware
07:27PM -20.7980 -47.2070 336° Northwest 451 519 37,000  Level FlightAware
07:28PM -20.7210 -47.2440 336° Northwest 447 514 37,000  Level FlightAware
07:29PM -20.6480 -47.2800 335° Northwest 450 518 37,000  Level FlightAware
07:31PM -20.4804 -47.3028 353° North  Level Estimated
07:31PM -20.4510 -47.3750 353° North 450 518 37,000  Level FlightAware
07:31PM -20.3440 -47.4270 336° Northwest 451 519 37,000  Level FlightAware
07:32PM -20.2530 -47.4710 336° Northwest 451 519 37,000  Level FlightAware
07:33PM -20.2050 -47.4950 335° Northwest 451 519 37,000  Level FlightAware
07:34PM -20.1310 -47.5320 335° Northwest 451 519 37,000  Level FlightAware
07:34PM -20.0270 -47.5790 337° Northwest 453 521 37,000  Level FlightAware
07:35PM -19.9470 -47.6180 335° Northwest 453 521 37,000  Level FlightAware
07:36PM -19.8630 -47.6580 336° Northwest 453 521 37,000  Level FlightAware
07:36PM -19.7970 -47.6900 335° Northwest 452 520 37,000  Level FlightAware
07:37PM -19.7190 -47.7270 336° Northwest 451 519 37,000  Level FlightAware
07:38PM -19.6430 -47.7630 336° Northwest 451 519 37,000  Level FlightAware
07:38PM -19.5670 -47.8000 335° Northwest 449 517 37,000  Level FlightAware
07:39PM -19.4910 -47.8360 336° Northwest 451 519 37,000  Level FlightAware
07:40PM -19.4070 -47.8760 336° Northwest 452 520 37,000  Level FlightAware
07:40PM -19.3330 -47.9110 336° Northwest 453 521 37,000  Level FlightAware
07:41PM -19.2460 -47.9520 336° Northwest 452 520 37,000  Level FlightAware
07:42PM -19.1710 -47.9880 336° Northwest 452 520 37,000  Level FlightAware
07:42PM -19.1070 -48.0180 336° Northwest 450 518 37,000  Level FlightAware
07:43PM -19.0450 -48.0480 335° Northwest 448 516 37,000  Level FlightAware
07:43PM -18.9720 -48.0830 336° Northwest 447 514 37,000  Level FlightAware
07:44PM -18.9120 -48.1110 336° Northwest 447 514 37,000  Level FlightAware
07:46PM -18.7450 -48.1910 336° Northwest 445 512 37,000  Level FlightAware
07:46PM -18.6610 -48.2300 336° Northwest 447 514 37,000  Level FlightAware
07:47PM -18.5760 -48.2700 336° Northwest 447 514 37,000  Level FlightAware
07:48PM -18.5010 -48.3050 336° Northwest 440 506 37,000  Level FlightAware
07:48PM -18.4230 -48.3410 336° Northwest 422 486 37,000  Level FlightAware
07:49PM -18.3540 -48.3740 336° Northwest 424 488 37,000  Level FlightAware
07:50PM -18.2720 -48.4130 336° Northwest 426 490 37,000  Level FlightAware
07:50PM -18.2010 -48.4460 336° Northwest 426 490 37,000  Level FlightAware
07:51PM -18.1380 -48.4750 336° Northwest 426 490 37,000  Level FlightAware
07:52PM -18.0610 -48.5110 336° Northwest 423 487 37,000  Level FlightAware
07:52PM -17.9760 -48.5470 338° Northwest 430 495 37,000 -360 Level FlightAware
07:53PM -17.8750 -48.5440 North 456 525 36,500 -2,040 Descending FlightAware
07:54PM -17.7750 -48.5310 North 470 541 33,800 -3,000 Descending FlightAware
07:55PM -17.6880 -48.5200 North 463 533 32,200 -2,220 Descending FlightAware
07:55PM -17.5970 -48.5260 356° North 431 496 30,700 -2,160 Descending FlightAware
07:56PM -17.5380 -48.5530 336° Northwest 414 476 29,500 -2,280 Descending FlightAware
07:57PM -17.4690 -48.5880 334° Northwest 404 465 27,900 -2,160 Descending FlightAware
07:57PM -17.3930 -48.6190 339° North 404 465 26,500 -1,560 Descending FlightAware
07:58PM -17.3340 -48.6120 North 392 451 26,000 -1,140 Descending FlightAware
07:59PM -17.2630 -48.5800 23° Northeast 373 429 25,100 -780 Descending FlightAware
08:00PM -17.1650 -48.5340 24° Northeast 362 417 24,600 -300 Descending FlightAware
08:01PM -17.1100 -48.5080 24° Northeast 362 417 24,600  Level FlightAware
08:01PM -17.0630 -48.4860 24° Northeast 362 417 24,600  Level FlightAware
08:02PM -16.9840 -48.4500 24° Northeast 362 417 24,600  Level FlightAware
08:03PM -16.9370 -48.4280 24° Northeast 362 417 24,600 -6,840 Level FlightAware
08:03PM -16.8670 -48.4290 359° North 319 367 18,600 -7,200 Descending FlightAware
08:04PM -16.8100 -48.4360 353° North 315 362 17,800 -1,260 Descending FlightAware
08:04PM -16.7460 -48.4420 355° North 311 358 16,900 -1,200 Descending FlightAware
08:05PM -16.6920 -48.4480 354° North 309 356 16,100 -1,260 Descending FlightAware
08:06PM -16.6350 -48.4600 349° North 307 353 15,300 -900 Descending FlightAware
08:06PM -16.5790 -48.4710 349° North 313 360 15,000 -600 Descending FlightAware
08:07PM -16.5240 -48.4830 348° North 314 361 14,500 -1,200 Descending FlightAware
08:08PM -16.4640 -48.4950 349° North 311 358 13,400 -1,140 Descending FlightAware
08:08PM -16.4100 -48.5060 349° North 299 344 13,000 -300 Descending FlightAware
08:09PM -16.3490 -48.5190 348° North 297 342 13,000  Level FlightAware
08:10PM -16.2730 -48.5350 349° North 297 342 13,000 -120 Level FlightAware
08:11PM -16.2260 -48.5210 16° North 274 315 12,900 -660 Descending FlightAware
08:11PM -16.2140 -48.5030 55° Northeast 265 305 12,400 -1,680 Descending FlightAware
08:12PM -16.1940 -48.4710 57° Northeast 260 299 11,500 -1,800 Descending FlightAware
08:12PM -16.1630 -48.4210 57° Northeast 257 296 10,000 -1,800 Descending FlightAware
08:13PM -16.1470 -48.3950 57° Northeast 255 293 9,400 -1,440 Descending FlightAware
08:13PM -16.1200 -48.3530 56° Northeast 252 290 8,500 -1,320 Descending FlightAware
08:14PM -16.1010 -48.3210 58° Northeast 251 289 7,900 -1,200 Descending FlightAware
08:14PM -16.0980 -48.3170 52° Northeast 251 289 7,800 -240 Descending FlightAware
08:14PM -16.0830 -48.2930 57° Northeast 251 289 7,800 -600 Level FlightAware
08:15PM -16.0590 -48.2550 57° Northeast 253 291 7,200 -720 Descending FlightAware
08:16PM -16.0430 -48.2290 57° Northeast 250 288 7,100 -300 Descending FlightAware
08:16PM -16.0280 -48.2150 42° Northeast 252 290 7,000 -600 Descending FlightAware
08:16PM -16.0000 -48.1960 33° Northeast 244 281 6,700 -600 Descending FlightAware
08:17PM -15.9740 -48.1820 27° Northeast 242 278 6,500 -480 Descending FlightAware
08:17PM -15.9500 -48.1740 18° North 238 274 6,300 -420 Descending FlightAware
08:18PM -15.9120 -48.1630 16° North 224 258 6,100 -120 Descending FlightAware
08:18PM -15.8940 -48.1580 15° North 200 230 6,200  Climbing FlightAware
08:18PM -15.8820 -48.1480 39° Northeast 166 191 6,100 -240 Descending FlightAware
08:18PM -15.8790 -48.1410 66° East 159 183 6,100 -180 Level FlightAware
08:19PM -15.8760 -48.1190 82° East 147 169 6,000 -240 Descending FlightAware
08:19PM -15.8740 -48.1000 84° East 146 168 5,900 -240 Descending FlightAware
08:20PM -15.8740 -48.0830 90° East 146 168 5,800 -420 Descending FlightAware
08:20PM -15.8730 -48.0660 87° East 147 169 5,600 -480 Descending FlightAware
08:21PM -15.8710 -48.0480 83° East 142 163 5,400 -660 Descending FlightAware
08:21PM -15.8700 -48.0280 87° East 136 157 5,000 -840 Descending FlightAware
08:21PM -15.8690 -48.0190 83° East 134 154 4,800 -600 Descending FlightAware
08:22PM -15.8680 -48.0030 86° East 136 157 4,600 -600 Descending FlightAware
08:22PM -15.8670 -47.9860 87° East 134 154 4,300 -840 Descending FlightAware
08:22PM -15.8670 -47.9800 90° East 133 153 4,100 -780 Descending FlightAware
08:23PM -15.8660 -47.9620 87° East 133 153 3,800 -600 Descending FlightAware
08:23PM -15.8650 -47.9520 84° East 134 154 3,700 -600 Descending FlightAware
08:24PM -15.8640 -47.9340 87° East 138 159 3,400 -660 Descending FlightAware
08:24PM -15.8630 -47.9160 87° East 88 101 -7,320 Descending FlightAware
08:24PM -15.8630 -47.9130 90° East 20 23  Level FlightAware
08:25PM -15.8630 -47.9140 270° West 28 32  Level FlightAware
08:25PM -15.8640 -47.9150 224° Southwest 25 29  Level FlightAware
08:25PM -15.8650 -47.9160 224° Southwest 22 25  Level FlightAware
08:26PM -15.8660 -47.9160 180° South 15 17  Level FlightAware
08:29PM -15.8626 -47.9127 43° Northeast  Level Estimated
08:29PM -15.8670 -47.9160 43° Northeast 20 23  Level FlightAware
08:29PM -15.8680 -47.9160 180° South 21 24  Level FlightAware
08:30PM -15.8690 -47.9160 180° South 2 2  Level FlightAware
08:32PM -15.8626 -47.9127 27° Northeast  Level Estimated
08:32PM -15.8710 -47.9160 27° Northeast 24 28  Level FlightAware
08:32PM -15.8710 -47.9180 270° West 33 38  Level FlightAware
08:33PM -15.8700 -47.9190 316° Northwest 31 36  Level FlightAware
08:34PM -15.8700 -47.9200 270° West  Level FlightAware
08:36PM -15.8626 -47.9127 44° Northeast  Level Estimated